createdAt,value
2022-11-14T00:01:30.240Z,20.00
2022-11-14T00:03:58.622Z,19.00
2022-11-14T00:06:27.000Z,17.00
2022-11-14T00:08:55.380Z,23.00
2022-11-14T00:11:23.756Z,22.50
2022-11-14T00:13:52.142Z,22.00
2022-11-14T00:16:20.516Z,19.00
2022-11-14T00:18:48.892Z,21.33
2022-11-14T00:21:17.277Z,21.00
2022-11-14T00:23:45.651Z,23.50
2022-11-14T00:26:14.032Z,21.00
2022-11-14T00:28:42.409Z,22.00
2022-11-14T00:31:11.506Z,20.00
2022-11-14T00:33:39.689Z,26.50
2022-11-14T00:36:08.572Z,18.00
2022-11-14T00:38:36.873Z,23.00
2022-11-14T00:41:05.229Z,25.50
2022-11-14T00:43:33.608Z,18.00
2022-11-14T00:46:01.992Z,19.00
2022-11-14T00:48:30.849Z,25.00
2022-11-14T00:50:59.566Z,23.00
2022-11-14T00:53:27.861Z,20.50
2022-11-14T00:55:56.527Z,27.00
2022-11-14T00:58:25.162Z,19.00
2022-11-14T01:00:53.852Z,15.50
2022-11-14T01:05:51.889Z,19.50
2022-11-14T01:08:20.369Z,19.00
2022-11-14T01:10:50.500Z,21.00
2022-11-14T01:13:19.382Z,22.00
2022-11-14T01:15:48.916Z,19.50
2022-11-14T01:18:19.926Z,25.50
2022-11-14T01:20:49.532Z,22.00
2022-11-14T01:23:18.121Z,15.00
2022-11-14T01:25:46.502Z,22.00
2022-11-14T01:28:18.228Z,20.00
2022-11-14T01:30:46.538Z,20.00
2022-11-14T01:33:15.119Z,18.00
2022-11-14T01:35:43.442Z,17.00
2022-11-14T01:38:14.985Z,23.50
2022-11-14T01:40:45.180Z,27.50
2022-11-14T01:43:19.390Z,22.50
2022-11-14T01:45:52.376Z,23.00
2022-11-14T01:51:13.714Z,19.00
2022-11-14T01:53:42.889Z,25.25
2022-11-14T01:56:13.848Z,15.00
2022-11-14T01:58:45.299Z,22.00
2022-11-14T02:01:14.054Z,18.00
2022-11-14T02:03:44.933Z,20.00
2022-11-14T02:06:16.408Z,15.00
2022-11-14T02:08:45.370Z,20.00
2022-11-14T02:11:13.854Z,16.00
2022-11-14T02:13:42.231Z,24.00
2022-11-14T02:16:10.611Z,14.00
2022-11-14T02:18:41.772Z,17.67
2022-11-14T02:21:10.134Z,20.00
2022-11-14T02:23:38.513Z,19.00
2022-11-14T02:26:06.996Z,21.00
2022-11-14T02:28:35.483Z,20.00
2022-11-14T02:31:04.063Z,14.00
2022-11-14T02:33:32.541Z,20.33
2022-11-14T02:36:00.919Z,17.00
2022-11-14T02:38:29.610Z,21.00
2022-11-14T02:41:00.495Z,18.00
2022-11-14T02:43:29.030Z,19.67
2022-11-14T02:46:01.396Z,23.00
2022-11-14T02:48:33.087Z,17.00
2022-11-14T02:51:01.641Z,21.00
2022-11-14T02:53:30.032Z,18.00
2022-11-14T02:55:58.406Z,18.00
2022-11-14T02:58:26.915Z,14.00
2022-11-14T03:01:19.010Z,17.00
2022-11-14T03:03:44.019Z,21.00
2022-11-14T03:06:12.705Z,21.00
2022-11-14T03:08:40.988Z,14.00
2022-11-14T03:11:10.418Z,17.00
2022-11-14T03:13:38.872Z,17.67
2022-11-14T03:16:09.229Z,13.00
2022-11-14T03:18:37.570Z,17.00
2022-11-14T03:21:14.759Z,15.00
2022-11-14T03:23:43.449Z,13.50
2022-11-14T03:26:12.950Z,16.67
2022-11-14T03:28:41.841Z,20.00
2022-11-14T03:31:13.102Z,14.00
2022-11-14T03:33:41.875Z,15.00
2022-11-14T03:36:10.361Z,14.00
2022-11-14T03:38:39.659Z,15.00
2022-11-14T03:41:08.038Z,17.00
2022-11-14T03:43:36.423Z,14.00
2022-11-14T03:46:05.412Z,14.50
2022-11-14T03:48:33.716Z,17.00
2022-11-14T03:51:02.175Z,13.50
2022-11-14T03:53:30.655Z,17.00
2022-11-14T03:55:59.172Z,16.00
2022-11-14T03:58:27.789Z,11.00
2022-11-14T04:00:56.689Z,15.00
2022-11-14T04:03:25.707Z,16.00
2022-11-14T04:05:53.984Z,12.33
2022-11-14T04:08:22.364Z,15.00
2022-11-14T04:10:50.860Z,12.00
2022-11-14T04:13:19.535Z,14.50
2022-11-14T04:15:47.909Z,17.00
2022-11-14T04:18:16.291Z,11.50
2022-11-14T04:20:44.773Z,14.50
2022-11-14T04:23:13.151Z,14.00
2022-11-14T04:25:44.146Z,15.50
2022-11-14T04:28:12.879Z,16.00
2022-11-14T04:30:41.463Z,18.00
2022-11-14T04:33:09.641Z,12.00
2022-11-14T04:35:38.119Z,14.00
2022-11-14T04:38:06.599Z,16.50
2022-11-14T04:40:34.878Z,15.00
2022-11-14T04:43:03.359Z,15.00
2022-11-14T04:45:31.792Z,18.00
2022-11-14T04:48:00.322Z,12.00
2022-11-14T04:50:29.008Z,13.00
2022-11-14T04:52:57.391Z,14.00
2022-11-14T04:55:25.977Z,11.67
2022-11-14T04:57:58.453Z,10.00
2022-11-14T05:00:26.728Z,16.50
2022-11-14T05:02:55.204Z,10.00
2022-11-14T05:05:23.531Z,12.00
2022-11-14T05:07:52.069Z,9.67
2022-11-14T05:10:20.615Z,10.00
2022-11-14T05:12:49.032Z,13.00
2022-11-14T05:15:17.613Z,11.00
2022-11-14T05:17:45.894Z,10.00
2022-11-14T05:20:14.375Z,11.00
2022-11-14T05:22:42.751Z,8.00
2022-11-14T05:25:11.647Z,9.00
2022-11-14T05:27:40.027Z,12.00
2022-11-14T05:30:09.192Z,11.00
2022-11-14T05:32:37.421Z,17.50
2022-11-14T05:35:06.609Z,12.50
2022-11-14T05:37:35.694Z,8.00
2022-11-14T05:40:05.510Z,10.50
2022-11-14T05:42:33.779Z,12.25
2022-11-14T05:45:02.161Z,9.50
2022-11-14T05:47:30.640Z,11.75
2022-11-14T05:49:58.917Z,12.00
2022-11-14T05:52:27.224Z,8.67
2022-11-14T05:54:55.573Z,11.00
2022-11-14T05:57:23.953Z,11.50
2022-11-14T05:59:52.435Z,11.00
2022-11-14T06:02:20.846Z,12.00
2022-11-14T06:04:49.399Z,10.00
2022-11-14T06:07:20.344Z,8.00
2022-11-14T06:09:49.028Z,10.00
2022-11-14T06:12:17.508Z,10.00
2022-11-14T06:14:45.886Z,7.00
2022-11-14T06:17:14.264Z,5.00
2022-11-14T06:19:42.748Z,12.00
2022-11-14T06:22:11.140Z,12.67
2022-11-14T06:24:39.508Z,6.00
2022-11-14T06:27:07.884Z,8.50
2022-11-14T06:29:36.279Z,13.00
2022-11-14T06:32:05.053Z,12.00
2022-11-14T06:34:33.333Z,19.50
2022-11-14T06:37:01.814Z,16.00
2022-11-14T06:39:30.607Z,14.00
2022-11-14T06:41:58.773Z,20.00
2022-11-14T06:44:30.792Z,18.00
2022-11-14T06:46:59.628Z,11.00
2022-11-14T06:49:28.212Z,15.00
2022-11-14T06:51:56.607Z,18.50
2022-11-14T06:54:24.971Z,15.00
2022-11-14T06:56:53.352Z,16.00
2022-11-14T06:59:21.731Z,17.00
2022-11-14T07:01:50.008Z,21.50
2022-11-14T07:06:46.913Z,20.00
2022-11-14T07:09:15.373Z,18.33
2022-11-14T07:11:46.391Z,10.50
2022-11-14T07:14:14.774Z,16.00
2022-11-14T07:16:43.149Z,15.33
2022-11-14T07:19:11.733Z,14.00
2022-11-14T07:21:40.522Z,14.00
2022-11-14T07:24:08.798Z,10.00
2022-11-14T07:26:37.284Z,11.00
2022-11-14T07:29:05.765Z,10.00
2022-11-14T07:34:02.316Z,10.00
2022-11-14T07:36:30.704Z,15.00
2022-11-14T07:38:59.079Z,8.00
2022-11-14T07:41:27.459Z,14.67
2022-11-14T07:43:55.940Z,11.50
2022-11-14T07:46:24.317Z,13.00
2022-11-14T07:48:52.702Z,17.00
2022-11-14T07:51:21.224Z,15.00
2022-11-14T07:53:53.429Z,12.50
2022-11-14T07:56:22.549Z,7.50
2022-11-14T07:58:51.024Z,10.00
2022-11-14T08:01:19.452Z,11.00
2022-11-14T08:03:47.886Z,7.00
2022-11-14T08:06:16.992Z,8.00
2022-11-14T08:08:45.261Z,11.00
2022-11-14T08:11:15.091Z,7.50
2022-11-14T08:13:51.745Z,11.50
2022-11-14T08:16:20.125Z,8.50
2022-11-14T08:18:48.505Z,7.00
2022-11-14T08:21:16.886Z,11.50
2022-11-14T08:23:46.183Z,9.00
2022-11-14T08:26:14.459Z,9.00
2022-11-14T08:28:42.942Z,9.50
2022-11-14T08:31:11.733Z,8.33
2022-11-14T08:33:40.212Z,10.00
2022-11-14T08:36:10.413Z,9.00
2022-11-14T08:38:38.712Z,7.00
2022-11-14T08:41:07.117Z,9.00
2022-11-14T08:43:35.571Z,13.00
2022-11-14T08:46:05.504Z,12.00
2022-11-14T08:48:34.184Z,9.00
2022-11-14T08:51:04.997Z,8.50
2022-11-14T08:53:34.211Z,7.67
2022-11-14T08:56:03.305Z,9.00
2022-11-14T08:58:32.750Z,6.33
2022-11-14T09:01:07.025Z,6.33
2022-11-14T09:03:35.564Z,6.00
2022-11-14T09:06:04.394Z,5.00
2022-11-14T09:08:32.978Z,8.00
2022-11-14T09:11:05.578Z,6.00
2022-11-14T09:13:35.285Z,11.00
2022-11-14T09:16:03.563Z,7.00
2022-11-14T09:18:32.178Z,8.00
2022-11-14T09:21:02.659Z,5.00
2022-11-14T09:23:31.262Z,7.00
2022-11-14T09:26:05.570Z,6.00
2022-11-14T09:28:34.258Z,9.00
2022-11-14T09:31:08.978Z,4.00
2022-11-14T09:33:37.254Z,7.00
2022-11-14T09:36:08.126Z,5.00
2022-11-14T09:38:38.642Z,7.00
2022-11-14T09:41:45.608Z,7.00
2022-11-14T09:44:41.558Z,8.00
2022-11-14T09:47:20.765Z,6.50
2022-11-14T09:49:52.329Z,7.00
2022-11-14T09:52:45.382Z,4.33
2022-11-14T09:55:36.507Z,6.50
2022-11-14T09:58:06.846Z,7.50
2022-11-14T10:01:09.401Z,7.00
2022-11-14T10:03:55.701Z,5.00
2022-11-14T10:06:28.583Z,6.00
2022-11-14T10:09:03.105Z,8.00
2022-11-14T10:11:55.339Z,6.00
2022-11-14T10:14:35.802Z,8.25
2022-11-14T10:17:09.246Z,8.50
2022-11-14T10:19:57.772Z,10.00
2022-11-14T10:23:07.709Z,6.33
2022-11-14T10:26:06.812Z,6.67
2022-11-14T10:28:54.770Z,6.00
2022-11-14T10:31:26.536Z,8.00
2022-11-14T10:34:30.932Z,4.00
2022-11-14T10:37:30.242Z,8.00
2022-11-14T10:40:22.068Z,8.50
2022-11-14T10:42:58.523Z,7.67
2022-11-14T10:45:47.802Z,4.00
2022-11-14T10:48:38.593Z,6.00
2022-11-14T10:51:20.313Z,5.00
2022-11-14T10:53:58.824Z,7.00
2022-11-14T10:56:27.198Z,4.00
2022-11-14T10:58:55.682Z,7.00
2022-11-14T11:01:39.863Z,4.00
2022-11-14T11:04:29.579Z,7.00
2022-11-14T11:07:07.078Z,6.00
2022-11-14T11:09:54.909Z,6.00
2022-11-14T11:12:46.293Z,4.00
2022-11-14T11:15:25.718Z,5.00
2022-11-14T11:17:57.696Z,6.00
2022-11-14T11:20:41.408Z,5.00
2022-11-14T11:23:12.642Z,3.50
2022-11-14T11:25:40.915Z,5.00
2022-11-14T11:28:19.649Z,6.00
2022-11-14T11:31:02.356Z,7.67
2022-11-14T11:33:32.912Z,4.50
2022-11-14T11:36:14.269Z,3.00
2022-11-14T11:38:42.861Z,5.00
2022-11-14T11:44:19.646Z,4.25
2022-11-14T11:46:54.516Z,6.00
2022-11-14T11:49:54.576Z,5.00
2022-11-14T11:53:14.286Z,8.00
2022-11-14T11:55:47.581Z,5.50
2022-11-14T11:58:48.047Z,5.50
2022-11-14T12:01:17.428Z,5.00
2022-11-14T12:03:55.068Z,5.00
2022-11-14T12:06:25.645Z,5.00
2022-11-14T12:09:16.546Z,6.00
2022-11-14T12:11:58.343Z,7.00
2022-11-14T12:14:39.749Z,4.00
2022-11-14T12:17:46.710Z,3.67
2022-11-14T12:20:41.873Z,6.00
2022-11-14T12:23:16.242Z,4.00
2022-11-14T12:26:06.190Z,5.50
2022-11-14T12:28:46.582Z,5.00
2022-11-14T12:31:19.676Z,7.00
2022-11-14T12:33:59.576Z,7.00
2022-11-14T12:36:32.290Z,5.00
2022-11-14T12:39:01.708Z,5.67
2022-11-14T12:41:35.416Z,2.00
2022-11-14T12:44:28.179Z,6.00
2022-11-14T12:47:05.899Z,4.00
2022-11-14T12:49:49.804Z,6.00
2022-11-14T12:52:46.257Z,5.00
2022-11-14T12:55:26.857Z,8.00
2022-11-14T12:58:07.683Z,6.33
2022-11-14T13:01:00.404Z,7.00
2022-11-14T13:03:57.992Z,6.50
2022-11-14T13:06:35.180Z,5.00
2022-11-14T13:09:29.797Z,7.00
2022-11-14T13:12:16.993Z,5.75
2022-11-14T13:15:15.382Z,4.00
2022-11-14T13:18:02.808Z,6.00
2022-11-14T13:20:54.843Z,3.00
2022-11-14T13:23:26.405Z,4.00
2022-11-14T13:26:10.445Z,7.00
2022-11-14T13:28:38.722Z,6.00
2022-11-14T13:31:16.325Z,6.50
2022-11-14T13:33:51.272Z,6.00
2022-11-14T13:36:44.097Z,5.00
2022-11-14T13:39:26.651Z,6.00
2022-11-14T13:42:01.133Z,7.00
2022-11-14T13:44:54.597Z,3.00
2022-11-14T13:48:07.319Z,5.00
2022-11-14T13:50:37.448Z,6.00
2022-11-14T13:53:24.147Z,9.50
2022-11-14T13:56:06.572Z,4.00
2022-11-14T13:59:23.177Z,9.50
2022-11-14T14:02:33.633Z,5.67
2022-11-14T14:05:25.050Z,6.00
2022-11-14T14:08:02.406Z,8.50
2022-11-14T14:10:56.836Z,8.00
2022-11-14T14:13:40.783Z,9.00
2022-11-14T14:16:11.923Z,5.50
2022-11-14T14:18:55.659Z,8.50
2022-11-14T14:21:46.155Z,3.50
2022-11-14T14:24:22.967Z,8.00
2022-11-14T14:26:56.019Z,7.00
2022-11-14T14:29:33.213Z,7.00
2022-11-14T14:32:15.897Z,6.00
2022-11-14T14:34:44.507Z,9.50
2022-11-14T14:37:21.592Z,5.00
2022-11-14T14:39:57.452Z,9.00
2022-11-14T14:42:30.842Z,7.00
2022-11-14T14:45:04.139Z,10.50
2022-11-14T14:47:32.732Z,8.00
2022-11-14T14:50:04.070Z,10.00
2022-11-14T14:52:37.024Z,7.33
2022-11-14T14:55:17.102Z,10.67
2022-11-14T14:57:45.399Z,9.00
2022-11-14T15:00:23.403Z,12.00
2022-11-14T15:02:55.162Z,11.00
2022-11-14T15:05:27.102Z,10.00
2022-11-14T15:07:58.847Z,9.00
2022-11-14T15:10:30.133Z,11.00
2022-11-14T15:12:58.808Z,10.50
2022-11-14T15:15:27.805Z,6.00
2022-11-14T15:17:58.957Z,4.00
2022-11-14T15:20:29.895Z,9.00
2022-11-14T15:23:06.691Z,12.00
2022-11-14T15:25:35.148Z,10.00
2022-11-14T15:28:04.139Z,8.00
2022-11-14T15:30:39.434Z,8.00
2022-11-14T15:33:27.725Z,8.00
2022-11-14T15:36:08.560Z,10.00
2022-11-14T15:38:43.910Z,9.00
2022-11-14T15:41:22.119Z,11.00
2022-11-14T15:43:53.371Z,9.50
2022-11-14T15:46:29.622Z,9.00
2022-11-14T15:48:58.252Z,10.33
2022-11-14T15:51:49.302Z,10.00
2022-11-14T15:54:44.259Z,9.00
2022-11-14T15:57:15.204Z,7.00
2022-11-14T15:59:43.891Z,12.00
2022-11-14T16:02:23.939Z,7.00
2022-11-14T16:04:52.728Z,10.00
2022-11-14T16:07:21.624Z,11.00
2022-11-14T16:09:50.104Z,11.00
2022-11-14T16:12:18.481Z,8.00
2022-11-14T16:14:48.189Z,12.00
2022-11-14T16:17:18.113Z,9.50
2022-11-14T16:19:46.693Z,10.00
2022-11-14T16:22:17.972Z,8.50
2022-11-14T16:24:46.319Z,10.50
2022-11-14T16:27:15.774Z,8.00
2022-11-14T16:29:44.199Z,11.00
2022-11-14T16:32:12.682Z,5.50
2022-11-14T16:34:41.172Z,4.50
2022-11-14T16:37:13.159Z,13.00
2022-11-14T16:39:41.713Z,10.00
2022-11-14T16:42:10.824Z,13.00
2022-11-14T16:44:43.932Z,11.00
2022-11-14T16:47:15.451Z,8.00
2022-11-14T16:49:43.832Z,10.00
2022-11-14T16:52:13.336Z,8.00
2022-11-14T16:54:41.715Z,7.50
2022-11-14T16:57:10.094Z,9.00
2022-11-14T16:59:38.475Z,7.00
2022-11-14T17:02:07.651Z,8.00
2022-11-14T17:04:36.051Z,11.33
2022-11-14T17:07:04.467Z,11.00
2022-11-14T17:09:32.916Z,6.00
2022-11-14T17:12:01.602Z,10.00
2022-11-14T17:14:30.491Z,7.25
2022-11-14T17:17:04.923Z,8.50
2022-11-14T17:19:33.292Z,14.00
2022-11-14T17:22:01.669Z,11.00
2022-11-14T17:24:31.548Z,8.00
2022-11-14T17:27:00.089Z,7.00
2022-11-14T17:29:28.547Z,5.50
2022-11-14T17:31:57.003Z,9.50
2022-11-14T17:34:25.512Z,8.67
2022-11-14T17:36:54.095Z,11.75
2022-11-14T17:39:23.296Z,8.00
2022-11-14T17:41:51.575Z,10.00
2022-11-14T17:44:19.951Z,12.00
2022-11-14T17:46:48.662Z,8.00
2022-11-14T17:49:17.022Z,11.00
2022-11-14T17:51:45.708Z,10.00
2022-11-14T17:54:13.983Z,11.00
2022-11-14T17:56:47.404Z,11.00
2022-11-14T17:59:17.293Z,11.00
2022-11-14T18:01:47.174Z,14.00
2022-11-14T18:04:15.585Z,10.00
2022-11-14T18:06:46.089Z,9.00
2022-11-14T18:09:14.804Z,8.00
2022-11-14T18:11:44.317Z,11.00
2022-11-14T18:14:13.820Z,10.50
2022-11-14T18:17:10.642Z,8.00
2022-11-14T18:19:30.855Z,10.00
2022-11-14T18:21:59.339Z,10.00
2022-11-14T18:24:27.812Z,9.00
2022-11-14T18:26:56.501Z,9.00
2022-11-14T18:29:24.980Z,8.50
2022-11-14T18:31:53.666Z,7.50
2022-11-14T18:34:21.951Z,7.00
2022-11-14T18:36:50.427Z,12.00
2022-11-14T18:39:20.956Z,11.00
2022-11-14T18:41:49.437Z,8.00
2022-11-14T18:44:18.123Z,11.00
2022-11-14T18:46:46.514Z,8.50
2022-11-14T18:49:14.985Z,11.00
2022-11-14T18:51:43.469Z,8.50
2022-11-14T18:54:14.409Z,11.00
2022-11-14T18:56:43.119Z,8.00
2022-11-14T18:59:11.473Z,8.33
2022-11-14T19:01:40.324Z,9.50
2022-11-14T19:04:10.406Z,8.00
2022-11-14T19:06:41.011Z,6.00
2022-11-14T19:09:16.871Z,7.00
2022-11-14T19:12:03.693Z,10.00
2022-11-14T19:14:32.065Z,9.00
2022-11-14T19:17:01.165Z,6.50
2022-11-14T19:19:30.051Z,11.00
2022-11-14T19:21:58.430Z,12.00
2022-11-14T19:24:26.912Z,7.00
2022-11-14T19:26:57.334Z,8.00
2022-11-14T19:29:25.924Z,5.00
2022-11-14T19:31:55.068Z,7.00
2022-11-14T19:34:23.290Z,9.00
2022-11-14T19:37:00.635Z,11.00
2022-11-14T19:39:30.392Z,14.00
2022-11-14T19:41:58.769Z,9.00
2022-11-14T19:44:27.152Z,11.67
2022-11-14T19:46:55.528Z,11.00
2022-11-14T19:49:24.032Z,8.50
2022-11-14T19:51:52.498Z,11.00
2022-11-14T19:54:21.202Z,10.00
2022-11-14T19:56:49.563Z,6.00
2022-11-14T19:59:22.900Z,10.00
2022-11-14T20:01:55.782Z,11.00
2022-11-14T20:04:26.681Z,11.00
2022-11-14T20:06:55.103Z,15.67
2022-11-14T20:09:23.742Z,10.00
2022-11-14T20:11:52.128Z,12.00
2022-11-14T20:14:20.609Z,15.00
2022-11-14T20:16:49.600Z,13.00
2022-11-14T20:19:18.387Z,14.00
2022-11-14T20:21:46.767Z,11.00
2022-11-14T20:24:21.623Z,9.67
2022-11-14T20:26:49.978Z,13.00
2022-11-14T20:29:18.461Z,15.00
2022-11-14T20:31:46.737Z,8.00
2022-11-14T20:34:15.422Z,14.00
2022-11-14T20:37:09.206Z,10.75
2022-11-14T20:39:32.250Z,11.00
2022-11-14T20:42:00.631Z,11.00
2022-11-14T20:44:29.418Z,15.00
2022-11-14T20:46:57.697Z,13.50
2022-11-14T20:49:26.181Z,8.00
2022-11-14T20:51:54.459Z,8.67
2022-11-14T20:54:22.832Z,15.50
2022-11-14T20:56:51.212Z,13.50
2022-11-14T20:59:19.489Z,11.00
2022-11-14T21:01:48.327Z,13.00
2022-11-14T21:04:16.761Z,12.00
2022-11-14T21:06:45.217Z,10.75
2022-11-14T21:09:13.724Z,13.00
2022-11-14T21:11:42.001Z,14.00
2022-11-14T21:14:12.121Z,11.00
2022-11-14T21:16:40.906Z,9.67
2022-11-14T21:19:09.189Z,12.00
2022-11-14T21:21:38.908Z,13.00
2022-11-14T21:24:07.789Z,12.00
2022-11-14T21:26:40.061Z,12.67
2022-11-14T21:29:12.321Z,13.50
2022-11-14T21:31:42.759Z,10.50
2022-11-14T21:34:13.397Z,9.50
2022-11-14T21:36:46.357Z,10.00
2022-11-14T21:39:16.858Z,11.00
2022-11-14T21:41:48.573Z,12.33
2022-11-14T21:44:18.073Z,11.50
2022-11-14T21:46:50.137Z,14.00
2022-11-14T21:49:18.411Z,9.00
2022-11-14T21:51:48.639Z,9.00
2022-11-14T21:54:17.221Z,14.00
2022-11-14T21:56:45.499Z,16.00
2022-11-14T21:59:17.008Z,17.00
2022-11-14T22:02:06.396Z,13.00
2022-11-14T22:04:35.727Z,11.50
2022-11-14T22:07:06.732Z,10.50
2022-11-14T22:09:36.971Z,13.00
2022-11-14T22:12:08.243Z,5.00
2022-11-14T22:14:36.925Z,14.00
2022-11-14T22:17:05.730Z,10.00
2022-11-14T22:19:34.201Z,9.00
2022-11-14T22:22:02.883Z,9.33
2022-11-14T22:24:31.569Z,13.00
2022-11-14T22:27:00.459Z,14.00
2022-11-14T22:29:29.152Z,12.00
2022-11-14T22:31:57.845Z,13.00
2022-11-14T22:34:26.518Z,11.00
2022-11-14T22:36:55.315Z,13.00
2022-11-14T22:39:24.005Z,13.33
2022-11-14T22:41:53.185Z,17.33
2022-11-14T22:44:21.878Z,11.00
2022-11-14T22:46:50.362Z,12.00
2022-11-14T22:49:21.207Z,11.00
2022-11-14T22:51:50.092Z,10.00
2022-11-14T22:54:19.905Z,14.00
2022-11-14T22:56:48.487Z,14.00
2022-11-14T22:59:17.068Z,12.00
2022-11-14T23:01:46.169Z,14.00
2022-11-14T23:04:14.984Z,12.00
2022-11-14T23:06:43.848Z,11.00
2022-11-14T23:09:12.641Z,14.00
2022-11-14T23:11:41.177Z,11.00
2022-11-14T23:14:13.631Z,9.00
2022-11-14T23:16:42.180Z,12.00
2022-11-14T23:19:10.887Z,14.00
2022-11-14T23:21:39.551Z,14.00
2022-11-14T23:24:13.920Z,9.00
2022-11-14T23:26:42.452Z,13.00
2022-11-14T23:29:14.375Z,13.00
2022-11-14T23:31:42.897Z,14.00
2022-11-14T23:34:11.486Z,11.00
2022-11-14T23:36:40.166Z,15.00
2022-11-14T23:39:08.752Z,15.50
2022-11-14T23:41:37.547Z,12.00
2022-11-14T23:44:06.229Z,10.00
2022-11-14T23:46:35.043Z,15.00
2022-11-14T23:49:03.803Z,13.00
2022-11-14T23:51:33.417Z,13.00
2022-11-14T23:54:02.103Z,15.50
2022-11-14T23:56:30.888Z,7.00
2022-11-14T23:58:59.811Z,14.00
